Terminal Aerodrome Forecast
Issued by NWS

Home | Current Version | Previous Version | Text Only | Print | Product List | Glossary On
Versions: 1 2 3 4 5 6 7 8 9 10 11 12 13 14 15 16 17 18 19 20 21
000
FTUS46 KPDT 082320
TAFDLS
TAF
KDLS 082320Z 0900/0924 10011KT 1/2SM SN FZFG VV012
      TEMPO 0900/0903 1/4SM +SN FZFG VV008
     FM090600 09010KT 3SM -FZDZSN SCT005 OVC010
     FM091600 12005KT 3SM -SHSN BR OVC012=

USA.gov is the U.S. government's official web portal to all federal, state and local government web resources and services.